createdAt,value
2022-08-16T03:46:48.332Z,99.90
2022-08-16T03:49:02.951Z,99.90
2022-08-16T03:51:29.810Z,99.90
2022-08-16T03:54:01.386Z,99.90
2022-08-16T03:56:30.492Z,99.90
2022-08-16T03:58:57.762Z,99.90
2022-08-16T04:01:29.289Z,99.90
2022-08-16T04:03:56.982Z,99.90
2022-08-16T04:06:23.843Z,99.90
2022-08-16T04:08:50.683Z,99.90
2022-08-16T04:11:18.143Z,99.90
2022-08-16T04:13:59.162Z,99.90
2022-08-16T04:16:28.706Z,99.90
2022-08-16T04:19:02.411Z,99.90
2022-08-16T04:21:32.378Z,99.90
2022-08-16T04:23:59.807Z,99.90
2022-08-16T04:26:30.955Z,99.90
2022-08-16T04:29:16.550Z,99.90
2022-08-16T04:31:56.506Z,99.90
2022-08-16T04:34:32.507Z,99.90
2022-08-16T04:37:01.404Z,99.90
2022-08-16T04:39:45.949Z,99.90
2022-08-16T04:42:17.970Z,99.90
2022-08-16T04:44:54.448Z,99.90
2022-08-16T04:47:33.332Z,99.90
2022-08-16T04:50:18.258Z,99.90
2022-08-16T04:52:47.121Z,99.90
2022-08-16T04:55:20.707Z,99.90
2022-08-16T04:57:59.184Z,99.90
2022-08-16T05:00:34.158Z,99.90
2022-08-16T05:03:07.661Z,99.90
2022-08-16T05:05:45.071Z,99.90
2022-08-16T05:08:28.038Z,99.90
2022-08-16T05:11:05.812Z,99.90
2022-08-16T05:13:41.157Z,99.90
2022-08-16T05:16:30.473Z,99.90
2022-08-16T05:18:59.587Z,99.90
2022-08-16T05:21:28.432Z,99.90
2022-08-16T05:24:07.077Z,99.90
2022-08-16T05:26:37.429Z,99.90
2022-08-16T05:29:11.103Z,99.90
2022-08-16T05:31:47.899Z,99.90
2022-08-16T05:34:19.532Z,99.90
2022-08-16T05:36:50.235Z,99.90
2022-08-16T05:39:18.303Z,99.90
2022-08-16T05:41:47.541Z,99.90
2022-08-16T05:44:22.873Z,99.90
2022-08-16T05:46:57.577Z,99.90
2022-08-16T05:49:38.519Z,99.90
2022-08-16T05:52:11.647Z,99.90
2022-08-16T05:54:46.805Z,99.90
2022-08-16T05:57:15.652Z,99.90
2022-08-16T05:59:42.411Z,99.90
2022-08-16T06:02:10.111Z,99.90
2022-08-16T06:04:37.679Z,99.90
2022-08-16T06:07:08.878Z,99.90
2022-08-16T06:09:43.715Z,99.90
2022-08-16T06:12:26.363Z,99.90
2022-08-16T06:14:58.495Z,99.90
2022-08-16T06:17:43.319Z,99.90
2022-08-16T06:20:14.369Z,99.90
2022-08-16T06:22:41.224Z,99.90
2022-08-16T06:25:12.999Z,99.90
2022-08-16T06:27:42.234Z,99.90
2022-08-16T06:30:28.947Z,99.90
2022-08-16T06:32:56.275Z,99.90
2022-08-16T06:35:23.873Z,99.90
2022-08-16T06:37:51.280Z,99.90
2022-08-16T06:40:20.617Z,99.90
2022-08-16T06:42:48.438Z,99.90
2022-08-16T06:45:15.935Z,99.90
2022-08-16T06:47:53.523Z,99.90
2022-08-16T06:50:22.371Z,99.90
2022-08-16T06:53:00.185Z,99.90
2022-08-16T06:55:43.344Z,99.90
2022-08-16T06:58:21.741Z,99.90
2022-08-16T07:00:49.869Z,99.90
2022-08-16T07:03:27.944Z,99.90
2022-08-16T07:05:56.909Z,99.90
2022-08-16T07:08:27.650Z,99.90
2022-08-16T07:10:56.586Z,99.90
2022-08-16T07:13:57.896Z,99.90
2022-08-16T07:16:15.454Z,99.90
2022-08-16T07:18:58.822Z,99.90
2022-08-16T07:21:45.577Z,99.90
2022-08-16T07:24:29.854Z,99.90
2022-08-16T07:27:00.643Z,99.90
2022-08-16T07:29:31.747Z,99.90
2022-08-16T07:32:00.705Z,99.90
2022-08-16T07:34:35.820Z,99.90
2022-08-16T07:37:15.546Z,99.90
2022-08-16T07:39:44.152Z,99.90
2022-08-16T07:42:20.072Z,99.90
2022-08-16T07:44:55.762Z,99.90
2022-08-16T07:47:31.473Z,99.90
2022-08-16T07:49:59.847Z,99.90
2022-08-16T07:52:29.673Z,99.90
2022-08-16T07:54:57.698Z,99.90
2022-08-16T07:57:24.946Z,99.90
2022-08-16T07:59:52.128Z,99.90
2022-08-16T08:02:20.290Z,99.90
2022-08-16T08:04:48.578Z,99.90
2022-08-16T08:07:16.511Z,99.90
2022-08-16T08:09:44.234Z,99.90
2022-08-16T08:12:32.209Z,99.90
2022-08-16T08:15:00.655Z,99.90
2022-08-16T08:17:42.580Z,99.90
2022-08-16T08:20:20.743Z,99.90
2022-08-16T08:23:00.676Z,99.90
2022-08-16T08:25:53.978Z,99.90
2022-08-16T08:28:17.835Z,99.90
2022-08-16T08:30:50.538Z,99.90
2022-08-16T08:33:22.795Z,99.90
2022-08-16T08:35:50.167Z,99.90
2022-08-16T08:38:42.150Z,99.90
2022-08-16T08:41:08.649Z,99.90
2022-08-16T08:43:36.342Z,99.90
2022-08-16T08:46:18.241Z,99.90
2022-08-16T08:48:59.791Z,99.90
2022-08-16T08:51:35.709Z,99.90
2022-08-16T08:54:09.259Z,98.80
2022-08-16T08:56:37.828Z,96.40
2022-08-16T08:59:20.154Z,94.60
2022-08-16T09:01:57.104Z,92.70
2022-08-16T09:04:26.594Z,90.30
2022-08-16T09:06:54.345Z,86.10
2022-08-16T09:09:22.464Z,80.50
2022-08-16T09:12:04.206Z,77.00
2022-08-16T09:14:35.721Z,73.10
2022-08-16T09:17:11.399Z,69.20
2022-08-16T09:19:44.572Z,66.00
2022-08-16T09:22:19.631Z,62.50
2022-08-16T09:24:52.886Z,62.60
2022-08-16T09:27:21.567Z,60.70
2022-08-16T09:30:00.396Z,58.10
2022-08-16T09:32:31.439Z,56.00
2022-08-16T09:35:01.383Z,55.20
2022-08-16T09:37:36.439Z,54.40
2022-08-16T09:40:31.568Z,52.00
2022-08-16T09:42:59.028Z,51.10
2022-08-16T09:45:29.000Z,49.50
2022-08-16T09:47:58.279Z,49.20
2022-08-16T09:50:37.018Z,48.70
2022-08-16T09:53:15.581Z,47.20
2022-08-16T09:55:50.186Z,45.80
2022-08-16T09:58:41.247Z,45.50
2022-08-16T10:01:08.500Z,45.60
2022-08-16T10:03:38.166Z,45.50
2022-08-16T10:06:26.043Z,45.40
2022-08-16T10:09:05.347Z,44.40
2022-08-16T10:11:53.238Z,43.50
2022-08-16T10:14:24.814Z,43.80
2022-08-16T10:17:03.327Z,44.20
2022-08-16T10:19:32.066Z,41.40
2022-08-16T10:21:59.799Z,40.00
2022-08-16T10:24:32.906Z,39.50
2022-08-16T10:27:25.886Z,35.90
2022-08-16T10:30:00.839Z,38.30
2022-08-16T10:32:34.335Z,39.50
2022-08-16T10:35:03.311Z,40.10
2022-08-16T10:37:41.884Z,40.60
2022-08-16T10:40:28.207Z,36.60
2022-08-16T10:43:00.558Z,37.30
2022-08-16T10:45:37.174Z,39.70
2022-08-16T10:48:27.389Z,39.80
2022-08-16T10:50:58.651Z,37.50
2022-08-16T10:53:33.070Z,36.50
2022-08-16T10:56:56.002Z,36.90
2022-08-16T10:59:29.314Z,36.60
2022-08-16T11:02:21.864Z,37.20
2022-08-16T11:11:04.583Z,35.80
2022-08-16T11:12:52.866Z,36.50
2022-08-16T11:15:20.296Z,35.70
2022-08-16T11:18:21.571Z,35.80
2022-08-16T11:20:41.162Z,36.20
2022-08-16T11:23:08.718Z,37.50
2022-08-16T11:31:13.651Z,35.90
2022-08-16T11:33:55.810Z,35.60
2022-08-16T11:36:27.449Z,36.20
2022-08-16T11:38:58.286Z,36.00
2022-08-16T11:41:29.428Z,36.10
2022-08-16T11:43:59.214Z,36.40
2022-08-16T11:46:44.521Z,36.80
2022-08-16T11:49:14.148Z,36.20
2022-08-16T11:51:44.103Z,34.80
2022-08-16T11:54:20.620Z,34.20
2022-08-16T11:56:53.133Z,33.60
2022-08-16T11:59:28.632Z,34.00
2022-08-16T12:01:59.940Z,35.40
2022-08-16T12:04:31.704Z,36.60
2022-08-16T12:06:58.812Z,36.50
2022-08-16T12:09:29.603Z,36.60
2022-08-16T12:11:58.378Z,38.10
2022-08-16T12:14:35.024Z,38.40
2022-08-16T12:17:03.119Z,38.90
2022-08-16T12:19:35.461Z,40.20
2022-08-16T12:22:05.487Z,40.80
2022-08-16T12:24:45.255Z,38.60
2022-08-16T12:27:14.692Z,39.60
2022-08-16T12:29:42.536Z,39.60
2022-08-16T12:32:26.607Z,39.80
2022-08-16T12:34:56.374Z,41.50
2022-08-16T12:37:24.630Z,41.80
2022-08-16T12:39:56.241Z,41.40
2022-08-16T12:42:35.198Z,41.00
2022-08-16T12:45:08.106Z,41.70
2022-08-16T12:48:09.939Z,41.60
2022-08-16T12:50:40.753Z,41.30
2022-08-16T12:53:07.855Z,41.00
2022-08-16T12:55:42.085Z,40.60
2022-08-16T12:58:14.048Z,40.60
2022-08-16T13:01:00.005Z,42.20
2022-08-16T13:03:28.936Z,40.70
2022-08-16T13:05:59.451Z,39.90
2022-08-16T13:08:27.534Z,41.00
2022-08-16T13:10:58.143Z,42.20
2022-08-16T13:13:25.826Z,42.40
2022-08-16T13:16:02.087Z,42.10
2022-08-16T13:18:34.808Z,41.80
2022-08-16T13:21:06.506Z,41.40
2022-08-16T13:23:35.822Z,42.10
2022-08-16T13:26:03.925Z,41.80
2022-08-16T13:28:30.749Z,43.10
2022-08-16T13:30:58.982Z,43.60
2022-08-16T13:33:37.118Z,43.30
2022-08-16T13:36:17.101Z,44.20
2022-08-16T13:38:57.553Z,42.90
2022-08-16T13:41:26.854Z,42.60
2022-08-16T13:44:00.677Z,43.10
2022-08-16T13:46:30.182Z,44.00
2022-08-16T13:48:57.573Z,43.90
2022-08-16T13:51:24.837Z,43.00
2022-08-16T13:54:02.972Z,41.60
2022-08-16T13:56:37.852Z,41.30
2022-08-16T13:59:14.299Z,40.30
2022-08-16T14:01:55.681Z,39.20
2022-08-16T14:04:28.591Z,39.20
2022-08-16T14:06:57.510Z,39.50
2022-08-16T14:09:24.657Z,39.80
2022-08-16T14:11:54.358Z,41.50
2022-08-16T14:14:28.640Z,42.40
2022-08-16T14:17:01.616Z,41.90
2022-08-16T14:19:29.677Z,41.50
2022-08-16T14:22:14.428Z,40.60
2022-08-16T14:24:45.355Z,40.90
2022-08-16T14:27:18.317Z,37.60
2022-08-16T14:29:49.184Z,38.00
2022-08-16T14:32:33.581Z,39.40
2022-08-16T14:35:07.439Z,39.00
2022-08-16T14:37:34.912Z,40.80
2022-08-16T14:40:03.038Z,41.10
2022-08-16T14:42:30.281Z,41.90
2022-08-16T14:44:57.741Z,42.40
2022-08-16T14:47:34.044Z,41.90
2022-08-16T14:50:02.079Z,41.60
2022-08-16T14:52:54.200Z,41.00
2022-08-16T14:55:16.059Z,41.00
2022-08-16T14:57:43.482Z,40.50
2022-08-16T15:00:14.047Z,41.30
2022-08-16T15:02:42.722Z,41.10
2022-08-16T15:05:11.264Z,37.30
2022-08-16T15:07:45.403Z,37.70
2022-08-16T15:10:24.396Z,37.40
2022-08-16T15:12:56.205Z,37.40
2022-08-16T15:15:25.334Z,36.50
2022-08-16T15:17:55.927Z,38.00
2022-08-16T15:20:29.589Z,38.40
2022-08-16T15:22:59.603Z,37.20
2022-08-16T15:25:30.583Z,37.50
2022-08-16T15:27:58.833Z,37.90
2022-08-16T15:30:56.546Z,37.80
2022-08-16T15:33:19.760Z,38.30
2022-08-16T15:35:49.979Z,38.10
2022-08-16T15:38:57.829Z,37.70
2022-08-16T15:41:04.756Z,38.00
2022-08-16T15:43:38.911Z,38.20
2022-08-16T15:46:54.072Z,38.00
2022-08-16T15:49:12.167Z,38.60
2022-08-16T15:51:39.455Z,39.80
2022-08-16T15:54:28.897Z,39.80
2022-08-16T15:56:55.283Z,39.40
2022-08-16T15:59:27.112Z,39.40
2022-08-16T16:01:55.917Z,39.30
2022-08-16T16:04:25.602Z,39.50
2022-08-16T16:06:55.269Z,40.00
2022-08-16T16:09:34.596Z,40.60
2022-08-16T16:12:41.465Z,41.40
2022-08-16T16:14:52.708Z,42.40
2022-08-16T16:17:19.443Z,41.80
2022-08-16T16:19:49.765Z,41.90
2022-08-16T16:22:21.468Z,41.40
2022-08-16T16:24:49.182Z,40.90
2022-08-16T16:27:16.954Z,40.60
2022-08-16T16:29:46.160Z,40.70
2022-08-16T16:32:17.494Z,40.90
2022-08-16T16:34:53.267Z,41.30
2022-08-16T16:37:21.118Z,41.50
2022-08-16T16:39:47.871Z,41.40
2022-08-16T16:42:29.142Z,41.30
2022-08-16T16:45:01.223Z,41.20
2022-08-16T16:47:40.708Z,41.60
2022-08-16T16:50:10.131Z,42.00
2022-08-16T16:52:44.865Z,42.20
2022-08-16T16:55:14.573Z,42.50
2022-08-16T16:58:01.239Z,42.70
2022-08-16T17:00:38.066Z,42.70
2022-08-16T17:03:17.035Z,43.00
2022-08-16T17:05:54.234Z,43.20
2022-08-16T17:08:25.575Z,43.70
2022-08-16T17:10:54.532Z,44.80
2022-08-16T17:13:23.451Z,45.30
2022-08-16T17:15:52.330Z,45.00
2022-08-16T17:19:15.466Z,46.10
2022-08-16T17:21:10.058Z,46.70
2022-08-16T17:23:58.052Z,47.20
2022-08-16T17:26:29.823Z,47.40
2022-08-16T17:29:02.668Z,47.50
2022-08-16T17:31:40.925Z,48.20
2022-08-16T17:34:29.089Z,48.60
2022-08-16T17:36:58.883Z,48.60
2022-08-16T17:39:29.624Z,49.30
2022-08-16T17:41:58.773Z,49.40
2022-08-16T17:44:25.467Z,49.60
2022-08-16T17:46:53.120Z,49.50
2022-08-16T17:49:20.922Z,50.00
2022-08-16T17:51:47.813Z,50.50
2022-08-16T17:54:18.783Z,50.50
2022-08-16T17:56:58.671Z,50.70
2022-08-16T17:59:28.141Z,50.80
2022-08-16T18:01:55.749Z,50.90
2022-08-16T18:04:49.876Z,51.00
2022-08-16T18:07:10.090Z,51.50
2022-08-16T18:09:39.571Z,51.60
2022-08-16T18:12:44.546Z,52.10
2022-08-16T18:15:06.488Z,52.60
2022-08-16T18:17:33.225Z,53.00
2022-08-16T18:20:00.076Z,53.50
2022-08-16T18:22:34.468Z,53.80
2022-08-16T18:25:01.485Z,54.60
2022-08-16T18:27:29.745Z,55.30
2022-08-16T18:29:56.572Z,56.90
2022-08-16T18:32:24.735Z,57.80
2022-08-16T18:34:52.896Z,58.30
2022-08-16T18:37:22.301Z,59.00
2022-08-16T18:39:49.076Z,59.70
2022-08-16T18:42:15.840Z,59.90
2022-08-16T18:44:43.997Z,60.00
2022-08-16T18:47:11.347Z,60.30
2022-08-16T18:49:38.582Z,60.70
2022-08-16T18:52:05.961Z,61.90
2022-08-16T18:54:33.765Z,61.70
2022-08-16T18:57:20.528Z,61.70
2022-08-16T18:59:47.255Z,62.10
2022-08-16T19:02:56.230Z,63.50
2022-08-16T19:05:26.271Z,64.10
2022-08-16T19:07:52.989Z,64.20
2022-08-16T19:10:20.111Z,63.90
2022-08-16T19:12:46.945Z,63.00
2022-08-16T19:15:21.722Z,64.00
2022-08-16T19:17:48.955Z,64.20
2022-08-16T19:20:18.501Z,63.90
2022-08-16T19:25:48.541Z,65.20
2022-08-16T19:28:50.629Z,66.00
2022-08-16T19:31:14.677Z,67.50
2022-08-16T19:33:53.538Z,68.40
2022-08-16T19:36:31.456Z,68.90
2022-08-16T19:39:04.297Z,69.50
2022-08-16T19:41:32.986Z,69.90
2022-08-16T19:43:59.778Z,70.70
2022-08-16T19:46:26.474Z,71.70
2022-08-16T19:48:53.207Z,72.10
2022-08-16T19:51:19.933Z,72.40
2022-08-16T19:53:46.677Z,72.80
2022-08-16T19:56:13.371Z,72.90
2022-08-16T19:58:51.158Z,73.60
2022-08-16T20:01:26.963Z,73.60
2022-08-16T20:03:53.672Z,74.30
2022-08-16T20:06:32.166Z,74.90
2022-08-16T20:09:06.455Z,75.60
2022-08-16T20:11:34.638Z,76.60
2022-08-16T20:14:01.688Z,77.20
2022-08-16T20:16:28.409Z,77.60
2022-08-16T20:18:55.143Z,78.40
2022-08-16T20:21:22.122Z,79.30
2022-08-16T20:23:48.822Z,80.30
2022-08-16T20:26:15.888Z,81.20
2022-08-16T20:28:52.509Z,81.70
2022-08-16T20:31:22.783Z,82.00
2022-08-16T20:33:50.631Z,82.60
2022-08-16T20:36:17.370Z,83.40
2022-08-16T20:38:47.018Z,84.30
2022-08-16T20:41:14.847Z,85.20
2022-08-16T20:43:41.728Z,86.00
2022-08-16T20:46:08.468Z,86.70
2022-08-16T20:48:35.200Z,87.20
2022-08-16T20:51:01.987Z,87.70
2022-08-16T20:53:28.711Z,89.60
2022-08-16T20:55:56.209Z,90.20
2022-08-16T20:58:22.970Z,91.30
2022-08-16T21:00:50.106Z,92.10
2022-08-16T21:03:17.029Z,92.40
2022-08-16T21:05:46.495Z,92.60
2022-08-16T21:08:51.042Z,92.70
2022-08-16T21:11:02.924Z,93.50
2022-08-16T21:13:32.864Z,94.30
2022-08-16T21:16:01.046Z,94.70
2022-08-16T21:18:28.368Z,95.20
2022-08-16T21:20:55.618Z,95.30
2022-08-16T21:23:22.454Z,95.40
2022-08-16T21:25:58.889Z,95.50
2022-08-16T21:28:40.192Z,95.60
2022-08-16T21:31:10.824Z,95.80
2022-08-16T21:33:37.765Z,96.60
2022-08-16T21:36:04.877Z,97.40
2022-08-16T21:38:31.753Z,97.80
2022-08-16T21:40:59.822Z,97.20
2022-08-16T21:43:31.612Z,96.90
2022-08-16T21:46:01.383Z,97.00
2022-08-16T21:48:34.806Z,97.40
2022-08-16T21:51:08.023Z,98.10
2022-08-16T21:53:35.402Z,97.70
2022-08-16T21:56:03.182Z,97.90
2022-08-16T21:58:30.987Z,98.10
2022-08-16T22:00:58.162Z,98.20
2022-08-16T22:03:24.996Z,98.40
2022-08-16T22:06:05.893Z,98.50
2022-08-16T22:08:46.806Z,98.50
2022-08-16T22:11:17.534Z,98.80
2022-08-16T22:13:49.266Z,98.80
2022-08-16T22:16:30.995Z,98.90
2022-08-16T22:18:58.150Z,98.90
2022-08-16T22:21:25.389Z,99.10
2022-08-16T22:23:57.356Z,99.50
2022-08-16T22:26:32.042Z,99.70
2022-08-16T22:29:08.842Z,99.90
2022-08-16T22:31:38.416Z,99.90
2022-08-16T22:34:05.630Z,99.90
2022-08-16T22:36:34.102Z,99.90
2022-08-16T22:39:04.181Z,99.90
2022-08-16T22:41:32.403Z,99.90
2022-08-16T22:44:00.877Z,99.90
2022-08-16T22:46:28.207Z,99.90
2022-08-16T22:48:55.016Z,99.90
2022-08-16T22:51:23.472Z,99.90
2022-08-16T22:53:51.386Z,99.90
2022-08-16T22:56:19.942Z,99.90
2022-08-16T22:58:47.299Z,99.90
